Time;durP1;ratioP1;P1;durP2;ratioP2;P2;SDS_P1;SDS_P2;PMS_P1;PMS_P2;Temp;Humidity;BMP_temperature;BMP_pressure;BME280_temperature;BME280_humidity;BME280_pressure;Samples;Min_cycle;Max_cycle;Signal;HPM_P1;HPM_P2
2022/07/16 00:03:19;;;;;;;1.13;1.02;;;18.30;58.30;;;;;;5094753;28;20053;-28
2022/07/16 00:05:45;;;;;;;2.15;1.00;;;18.30;58.30;;;;;;5094654;28;20024;-26
2022/07/16 00:08:11;;;;;;;1.20;1.00;;;18.40;58.40;;;;;;5094651;28;20094;-25
2022/07/16 00:10:36;;;;;;;1.50;1.10;;;18.40;58.50;;;;;;5094342;28;20074;-26
2022/07/16 00:13:02;;;;;;;1.10;0.93;;;18.40;58.60;;;;;;5093357;28;20403;-26
2022/07/16 00:15:29;;;;;;;1.00;0.90;;;18.40;58.80;;;;;;5094256;28;20375;-26
2022/07/16 00:19:15;;;;;;;1.70;1.02;;;18.40;58.80;;;;;;5094212;28;20031;-26
2022/07/16 00:20:41;;;;;;;2.30;1.05;;;18.50;58.90;;;;;;5094229;28;20117;-25
2022/07/16 00:23:07;;;;;;;0.93;0.90;;;18.50;59.00;;;;;;5094232;28;20360;-26
2022/07/16 00:25:35;;;;;;;1.55;1.08;;;18.50;59.00;;;;;;5094061;28;20389;-25
2022/07/16 00:28:00;;;;;;;1.40;1.10;;;18.50;59.10;;;;;;5094298;28;20097;-30
2022/07/16 00:30:26;;;;;;;1.58;1.15;;;18.50;59.10;;;;;;5094550;28;20048;-26
2022/07/16 00:32:52;;;;;;;1.55;1.10;;;18.50;59.20;;;;;;5094069;28;20047;-27
2022/07/16 00:35:18;;;;;;;1.20;1.10;;;18.50;59.30;;;;;;5094411;28;20545;-26
2022/07/16 00:37:43;;;;;;;1.30;1.13;;;18.60;59.40;;;;;;5094015;28;20026;-25
2022/07/16 00:40:09;;;;;;;1.67;1.58;;;18.60;59.50;;;;;;5094358;28;20096;-26
2022/07/16 00:42:35;;;;;;;4.40;1.38;;;18.60;59.60;;;;;;5094023;28;20073;-26
2022/07/16 00:45:00;;;;;;;1.92;1.40;;;18.60;59.70;;;;;;5093867;28;20345;-26
2022/07/16 00:47:26;;;;;;;1.95;1.30;;;18.60;59.80;;;;;;5093884;28;20103;-26
2022/07/16 00:49:51;;;;;;;1.80;1.30;;;18.60;59.90;;;;;;5093985;28;20024;-30
2022/07/16 00:52:17;;;;;;;1.90;1.17;;;18.60;59.90;;;;;;5093892;28;20548;-28
2022/07/16 00:54:43;;;;;;;1.58;1.30;;;18.60;59.90;;;;;;5093662;28;20024;-35
2022/07/16 00:57:08;;;;;;;1.80;1.23;;;18.70;60.00;;;;;;5093792;28;20115;-26
2022/07/16 00:59:34;;;;;;;2.33;1.50;;;18.70;60.30;;;;;;5094072;28;20451;-27
2022/07/16 01:02:00;;;;;;;3.13;1.30;;;18.70;60.20;;;;;;5092222;28;20115;-25
2022/07/16 01:04:25;;;;;;;2.05;1.30;;;18.70;60.30;;;;;;5093339;28;20035;-25
2022/07/16 01:06:51;;;;;;;2.00;1.35;;;18.70;60.50;;;;;;5093687;28;20016;-27
2022/07/16 01:09:17;;;;;;;2.17;1.40;;;18.70;60.60;;;;;;5093569;28;20023;-29
2022/07/16 01:11:44;;;;;;;2.35;1.30;;;18.60;60.70;;;;;;5093289;28;20103;-27
2022/07/16 01:14:10;;;;;;;2.80;1.30;;;18.60;60.80;;;;;;5093383;28;20107;-26
2022/07/16 01:16:36;;;;;;;3.42;1.50;;;18.50;61.00;;;;;;5093705;28;20035;-30
2022/07/16 01:19:02;;;;;;;2.90;1.50;;;18.50;61.20;;;;;;5093390;28;20020;-27
2022/07/16 01:21:28;;;;;;;2.38;1.45;;;18.50;61.40;;;;;;5093663;28;20087;-27
2022/07/16 01:23:53;;;;;;;1.45;1.30;;;18.50;61.50;;;;;;5093498;28;20521;-26
2022/07/16 01:26:19;;;;;;;2.03;1.45;;;18.50;61.60;;;;;;5093500;28;20034;-27
2022/07/16 01:28:45;;;;;;;1.90;1.60;;;18.50;61.80;;;;;;5091818;28;20070;-26
2022/07/16 01:31:11;;;;;;;1.52;1.40;;;18.40;61.80;;;;;;5091789;28;20034;-26
2022/07/16 01:33:40;;;;;;;2.55;1.70;;;18.50;61.90;;;;;;5092942;28;20030;-26
2022/07/16 01:36:07;;;;;;;2.20;1.50;;;18.50;62.00;;;;;;5091733;28;20016;-27
2022/07/16 01:38:36;;;;;;;3.80;1.38;;;18.50;62.00;;;;;;5092747;28;20106;-31
2022/07/16 01:41:02;;;;;;;1.95;1.50;;;18.50;62.00;;;;;;5092718;28;20037;-28
2022/07/16 01:43:29;;;;;;;5.65;1.40;;;18.50;62.10;;;;;;5092877;28;20171;-29
2022/07/16 01:45:57;;;;;;;2.33;1.30;;;18.50;62.10;;;;;;5092734;28;20020;-26
2022/07/16 01:48:23;;;;;;;1.58;1.30;;;18.60;62.20;;;;;;5092685;28;20170;-26
2022/07/16 01:50:50;;;;;;;2.40;1.30;;;18.60;62.10;;;;;;5092636;28;20024;-27
2022/07/16 01:53:16;;;;;;;2.40;1.27;;;18.60;62.10;;;;;;5092519;28;20024;-25
2022/07/16 01:55:42;;;;;;;3.22;1.48;;;18.60;62.10;;;;;;5092974;28;20028;-26
2022/07/16 01:58:10;;;;;;;2.85;1.15;;;18.60;62.10;;;;;;5092616;28;20210;-29
2022/07/16 02:00:37;;;;;;;2.65;1.20;;;18.70;62.20;;;;;;5092717;28;20535;-28
2022/07/16 02:03:04;;;;;;;2.75;1.20;;;18.70;62.20;;;;;;5092650;28;20453;-28
2022/07/16 02:05:29;;;;;;;3.22;1.58;;;18.70;62.30;;;;;;5092403;28;20054;-28
2022/07/16 02:07:55;;;;;;;1.75;1.40;;;18.70;62.40;;;;;;5092613;28;20416;-28
2022/07/16 02:10:21;;;;;;;2.10;1.23;;;18.70;62.50;;;;;;5090892;28;20040;-27
2022/07/16 02:12:47;;;;;;;1.90;1.50;;;18.70;62.50;;;;;;5092370;28;20386;-29
2022/07/16 02:15:13;;;;;;;1.50;1.40;;;18.70;62.70;;;;;;5091251;28;20588;-27
2022/07/16 02:17:39;;;;;;;1.65;1.38;;;18.70;62.80;;;;;;5092299;28;20098;-30
2022/07/16 02:20:07;;;;;;;1.90;1.33;;;18.60;62.90;;;;;;5091161;28;20020;-26
2022/07/16 02:22:33;;;;;;;1.58;1.27;;;18.70;63.00;;;;;;5092294;28;20024;-29
2022/07/16 02:24:59;;;;;;;2.47;1.40;;;18.70;63.10;;;;;;5092343;28;20559;-27
2022/07/16 02:27:25;;;;;;;4.28;1.40;;;18.70;63.20;;;;;;5092285;28;20020;-28
2022/07/16 02:29:50;;;;;;;2.97;1.33;;;18.70;63.20;;;;;;5092637;28;20050;-26
2022/07/16 02:32:16;;;;;;;3.50;1.40;;;18.70;63.30;;;;;;5092730;28;20024;-27
2022/07/16 02:34:42;;;;;;;1.98;1.15;;;18.60;63.30;;;;;;5091934;28;20017;-26
2022/07/16 02:37:07;;;;;;;2.13;1.20;;;18.60;63.40;;;;;;5092432;28;20031;-29
2022/07/16 02:39:33;;;;;;;4.00;1.50;;;18.50;63.40;;;;;;5092739;28;20027;-27
2022/07/16 02:41:59;;;;;;;2.47;1.50;;;18.60;63.60;;;;;;5092440;28;20016;-26
2022/07/16 02:44:25;;;;;;;1.58;1.17;;;18.50;63.60;;;;;;5092258;28;20067;-26
2022/07/16 02:46:51;;;;;;;2.60;1.38;;;18.50;63.70;;;;;;5092091;28;20020;-27
2022/07/16 02:49:16;;;;;;;2.03;1.35;;;18.50;63.80;;;;;;5092239;28;20027;-27
2022/07/16 02:51:42;;;;;;;4.22;1.60;;;18.50;63.90;;;;;;5091926;28;20024;-27
2022/07/16 02:54:08;;;;;;;2.70;1.30;;;18.50;64.00;;;;;;5091939;28;20442;-25
2022/07/16 02:56:33;;;;;;;2.67;1.33;;;18.50;64.20;;;;;;5092155;28;20020;-27
2022/07/16 02:58:59;;;;;;;2.20;1.58;;;18.50;64.30;;;;;;5090697;28;20028;-28
2022/07/16 03:01:24;;;;;;;3.47;1.30;;;18.40;64.30;;;;;;5090826;28;20111;-30
2022/07/16 03:03:51;;;;;;;1.92;1.35;;;18.40;64.40;;;;;;5091952;28;20127;-27
2022/07/16 03:06:17;;;;;;;2.60;1.45;;;18.40;64.50;;;;;;5092213;28;20372;-28
2022/07/16 03:08:43;;;;;;;3.30;1.50;;;18.40;64.60;;;;;;5092177;28;20028;-33
2022/07/16 03:11:09;;;;;;;3.58;1.58;;;18.40;64.80;;;;;;5091549;28;20053;-28
2022/07/16 03:13:35;;;;;;;2.40;1.50;;;18.40;64.90;;;;;;5091806;28;20020;-26
2022/07/16 03:16:01;;;;;;;1.77;1.45;;;18.40;65.00;;;;;;5091877;28;20016;-27
2022/07/16 03:18:27;;;;;;;3.17;1.38;;;18.30;65.10;;;;;;5092750;28;20089;-27
2022/07/16 03:20:52;;;;;;;2.30;1.60;;;18.30;65.20;;;;;;5090456;28;20020;-28
2022/07/16 03:23:18;;;;;;;4.20;1.63;;;18.30;65.40;;;;;;5091923;28;20074;-26
2022/07/16 03:25:43;;;;;;;2.78;1.60;;;18.20;65.60;;;;;;5091573;28;20568;-29
2022/07/16 03:28:09;;;;;;;2.28;1.67;;;18.30;65.90;;;;;;5091677;28;20051;-28
2022/07/16 03:30:35;;;;;;;4.47;2.05;;;18.20;66.10;;;;;;5092246;28;20031;-28
2022/07/16 03:33:01;;;;;;;4.63;1.80;;;18.20;66.50;;;;;;5091571;28;20029;-32
2022/07/16 03:35:27;;;;;;;5.45;2.00;;;18.20;66.50;;;;;;5090258;28;20028;-26
2022/07/16 03:40:37;;;;;;;2.65;1.80;;;18.20;66.70;;;;;;5091954;28;20050;-28
2022/07/16 03:43:03;;;;;;;4.00;2.10;;;18.20;66.80;;;;;;5091592;28;20032;-27
2022/07/16 03:45:28;;;;;;;4.72;2.15;;;18.20;67.00;;;;;;5091809;28;20052;-27
2022/07/16 03:47:54;;;;;;;3.50;2.22;;;18.10;67.20;;;;;;5093640;28;20058;-27
2022/07/16 03:50:20;;;;;;;4.60;2.17;;;18.10;67.30;;;;;;5095260;28;20024;-28
2022/07/16 03:52:46;;;;;;;3.10;2.13;;;18.10;67.50;;;;;;5095203;28;20028;-26
2022/07/16 03:55:12;;;;;;;5.57;2.10;;;18.10;67.80;;;;;;5095257;28;20020;-27
2022/07/16 03:57:38;;;;;;;3.15;2.25;;;18.00;67.90;;;;;;5095152;28;20024;-28
2022/07/16 04:00:04;;;;;;;3.70;2.15;;;18.00;68.10;;;;;;5094920;28;20020;-26
2022/07/16 04:02:30;;;;;;;3.83;2.45;;;18.00;68.20;;;;;;5095306;28;20017;-27
2022/07/16 04:04:56;;;;;;;2.58;2.08;;;18.00;68.50;;;;;;5095204;28;20031;-26
2022/07/16 04:07:21;;;;;;;3.20;2.30;;;18.00;68.60;;;;;;5094725;28;20426;-28
2022/07/16 04:09:47;;;;;;;2.88;2.20;;;17.90;68.70;;;;;;5094789;28;20517;-27
2022/07/16 04:12:12;;;;;;;2.85;1.92;;;18.00;68.80;;;;;;5095141;28;20046;-27
2022/07/16 04:14:38;;;;;;;4.00;2.10;;;18.00;68.80;;;;;;5094592;28;20412;-28
2022/07/16 04:17:04;;;;;;;2.25;1.80;;;18.00;69.00;;;;;;5094744;28;20067;-26
2022/07/16 04:19:29;;;;;;;3.60;2.00;;;18.00;69.20;;;;;;5094734;28;20024;-37
2022/07/16 04:21:55;;;;;;;3.50;1.90;;;18.00;69.30;;;;;;5094589;28;20459;-26
2022/07/16 04:24:20;;;;;;;3.17;1.83;;;18.00;69.30;;;;;;5094583;28;20341;-35
2022/07/16 04:26:46;;;;;;;2.70;1.67;;;18.00;69.50;;;;;;5094928;28;20106;-28
2022/07/16 04:29:13;;;;;;;4.05;2.08;;;18.00;69.70;;;;;;5094812;28;20028;-27
2022/07/16 04:31:39;;;;;;;4.18;2.13;;;18.00;70.90;;;;;;5094390;28;20375;-27
2022/07/16 04:34:04;;;;;;;2.70;1.92;;;18.00;70.80;;;;;;5094347;28;20017;-27
2022/07/16 04:36:30;;;;;;;2.25;1.85;;;17.90;71.10;;;;;;5094897;28;20028;-25
2022/07/16 04:38:56;;;;;;;2.85;1.63;;;17.80;71.30;;;;;;5094526;28;20498;-27
2022/07/16 04:41:21;;;;;;;3.05;1.98;;;17.80;71.70;;;;;;5094159;28;20028;-28
2022/07/16 04:43:47;;;;;;;4.00;1.73;;;17.80;71.90;;;;;;5092826;28;20028;-32
2022/07/16 04:46:12;;;;;;;3.55;1.60;;;17.80;72.20;;;;;;5094699;28;20471;-28
2022/07/16 04:48:38;;;;;;;1.95;1.70;;;17.70;72.40;;;;;;5094005;28;20051;-26
2022/07/16 04:51:06;;;;;;;4.70;1.65;;;17.80;72.60;;;;;;5094120;28;20016;-26
2022/07/16 04:53:31;;;;;;;4.07;1.92;;;17.80;72.70;;;;;;5093833;28;20020;-26
2022/07/16 04:55:57;;;;;;;3.97;2.13;;;17.80;73.10;;;;;;5093976;28;20085;-26
2022/07/16 04:58:23;;;;;;;4.13;2.00;;;17.70;73.20;;;;;;5093186;28;20024;-26
2022/07/16 05:00:48;;;;;;;2.83;1.92;;;17.70;73.50;;;;;;5093882;28;20023;-26
2022/07/16 05:03:14;;;;;;;1.98;1.80;;;17.70;73.60;;;;;;5094210;28;20028;-25
2022/07/16 05:05:40;;;;;;;2.45;1.92;;;17.70;73.80;;;;;;5093717;28;20609;-25
2022/07/16 05:08:09;;;;;;;2.47;1.83;;;17.70;73.90;;;;;;5093619;28;20023;-26
2022/07/16 05:10:36;;;;;;;3.28;2.13;;;17.80;74.20;;;;;;5092055;28;20044;-27
2022/07/16 05:13:02;;;;;;;2.53;2.22;;;17.80;74.20;;;;;;5093767;28;20119;-27
2022/07/16 05:15:29;;;;;;;3.30;2.05;;;17.80;74.30;;;;;;5093527;28;20020;-26
2022/07/16 05:17:55;;;;;;;2.88;2.10;;;17.80;74.30;;;;;;5093372;28;20031;-25
2022/07/16 05:20:20;;;;;;;3.03;1.88;;;17.90;74.40;;;;;;5093229;28;20020;-30
2022/07/16 05:22:46;;;;;;;4.40;2.50;;;17.90;74.40;;;;;;5093492;28;20024;-28
2022/07/16 05:25:12;;;;;;;4.30;2.40;;;17.90;74.50;;;;;;5093402;28;20028;-27
2022/07/16 05:27:38;;;;;;;2.92;2.10;;;17.90;74.70;;;;;;5093085;28;20031;-26
2022/07/16 05:30:05;;;;;;;2.50;2.30;;;17.80;74.90;;;;;;5091459;28;20055;-26
2022/07/16 05:32:30;;;;;;;3.30;2.28;;;17.80;75.20;;;;;;5092934;28;20028;-37
2022/07/16 05:34:56;;;;;;;3.90;2.80;;;17.70;75.40;;;;;;5093118;28;20455;-28
2022/07/16 05:37:22;;;;;;;3.22;2.45;;;17.70;75.70;;;;;;5093114;28;20080;-26
2022/07/16 05:39:47;;;;;;;2.70;2.50;;;17.70;75.90;;;;;;5093050;28;20024;-28
2022/07/16 05:42:13;;;;;;;4.10;2.80;;;17.60;76.40;;;;;;5092980;28;20058;-27
2022/07/16 05:44:39;;;;;;;3.72;2.80;;;17.70;76.90;;;;;;5093064;28;20080;-30
2022/07/16 05:47:04;;;;;;;3.83;2.42;;;17.60;77.20;;;;;;5093176;28;20432;-27
2022/07/16 05:49:30;;;;;;;3.47;2.05;;;17.60;77.20;;;;;;5093211;28;20507;-28
2022/07/16 05:51:56;;;;;;;2.65;2.40;;;17.60;77.20;;;;;;5093158;28;20024;-28
2022/07/16 05:54:22;;;;;;;3.97;2.40;;;17.70;77.20;;;;;;5092755;28;20429;-26
2022/07/16 05:56:48;;;;;;;4.47;2.30;;;17.70;77.10;;;;;;5092794;28;20016;-31
2022/07/16 05:59:15;;;;;;;3.05;1.92;;;17.70;77.10;;;;;;5092843;28;20102;-27
2022/07/16 06:01:41;;;;;;;4.13;2.50;;;17.80;77.30;;;;;;5093271;28;20024;-26
2022/07/16 06:04:06;;;;;;;2.58;1.90;;;17.80;77.40;;;;;;5092865;28;20028;-25
2022/07/16 06:06:32;;;;;;;3.92;1.80;;;17.80;77.30;;;;;;5092007;28;20062;-26
2022/07/16 06:08:57;;;;;;;3.88;1.80;;;17.80;77.30;;;;;;5092290;28;20062;-27
2022/07/16 06:11:23;;;;;;;2.65;1.58;;;17.90;77.20;;;;;;5092026;28;20127;-26
2022/07/16 06:13:48;;;;;;;3.50;1.60;;;17.90;77.20;;;;;;5093042;28;20024;-27
2022/07/16 06:16:14;;;;;;;1.80;1.27;;;18.00;77.10;;;;;;5092475;28;20477;-26
2022/07/16 06:18:41;;;;;;;5.43;1.75;;;18.00;76.90;;;;;;5092511;28;20364;-27
2022/07/16 06:21:07;;;;;;;2.15;1.30;;;18.10;76.70;;;;;;5090963;28;20035;-30
2022/07/16 06:23:32;;;;;;;2.95;1.55;;;18.10;76.70;;;;;;5092537;28;20024;-28
2022/07/16 06:25:58;;;;;;;2.33;1.40;;;18.20;77.00;;;;;;5092261;28;20149;-28
2022/07/16 06:28:24;;;;;;;1.92;0.98;;;18.20;76.00;;;;;;5092298;28;20034;-28
2022/07/16 06:30:49;;;;;;;1.58;1.10;;;18.30;75.90;;;;;;5092910;28;20047;-29
2022/07/16 06:33:15;;;;;;;3.08;1.10;;;18.30;75.70;;;;;;5092346;28;20430;-26
2022/07/16 06:35:40;;;;;;;2.50;1.20;;;18.30;75.50;;;;;;5092347;28;20086;-27
2022/07/16 06:38:06;;;;;;;2.55;1.10;;;18.40;75.10;;;;;;5092208;28;20022;-27
2022/07/16 06:40:31;;;;;;;2.72;1.23;;;18.40;74.70;;;;;;5092526;28;20031;-28
2022/07/16 06:42:57;;;;;;;3.85;1.20;;;18.40;74.40;;;;;;5092594;28;20020;-28
2022/07/16 06:45:23;;;;;;;2.20;0.90;;;18.40;74.00;;;;;;5092421;28;20028;-26
2022/07/16 06:47:48;;;;;;;3.70;1.08;;;18.40;73.70;;;;;;5092606;28;20035;-27
2022/07/16 06:50:14;;;;;;;2.95;1.00;;;18.40;73.50;;;;;;5092227;28;20069;-27
2022/07/16 06:52:40;;;;;;;2.85;1.30;;;18.50;73.10;;;;;;5092522;28;20064;-27
2022/07/16 06:55:06;;;;;;;1.90;0.98;;;18.50;72.80;;;;;;5091993;28;20091;-27
2022/07/16 06:57:32;;;;;;;3.08;1.20;;;18.60;72.50;;;;;;5092087;28;20016;-29
2022/07/16 06:59:57;;;;;;;2.08;0.82;;;18.60;72.20;;;;;;5091984;28;20043;-32
2022/07/16 07:02:23;;;;;;;2.33;1.00;;;18.80;72.20;;;;;;5092347;28;20127;-29
2022/07/16 07:04:49;;;;;;;4.10;1.23;;;18.90;71.80;;;;;;5092099;28;20024;-26
2022/07/16 07:07:15;;;;;;;2.13;1.10;;;18.90;71.10;;;;;;5090448;28;20089;-26
2022/07/16 07:09:40;;;;;;;2.05;0.85;;;19.00;70.50;;;;;;5092318;28;20135;-26
2022/07/16 07:12:06;;;;;;;2.08;0.82;;;19.00;70.10;;;;;;5091894;28;20332;-27
2022/07/16 07:14:31;;;;;;;1.88;0.95;;;19.10;69.90;;;;;;5091850;28;20024;-27
2022/07/16 07:16:57;;;;;;;2.15;0.90;;;19.10;69.40;;;;;;5091904;28;20027;-28
2022/07/16 07:19:22;;;;;;;4.22;0.90;;;19.10;68.60;;;;;;5091772;28;20191;-28
2022/07/16 07:21:48;;;;;;;2.60;0.95;;;19.20;68.00;;;;;;5094387;28;20024;-28
2022/07/16 07:24:13;;;;;;;2.45;0.80;;;19.20;67.10;;;;;;5096011;28;20031;-27
2022/07/16 07:26:39;;;;;;;2.25;1.00;;;19.10;65.80;;;;;;5095654;28;20031;-29
2022/07/16 07:29:05;;;;;;;2.75;1.00;;;19.20;65.80;;;;;;5095638;28;20123;-27
2022/07/16 07:31:30;;;;;;;3.15;1.05;;;19.20;65.00;;;;;;5095879;28;20383;-26
2022/07/16 07:33:56;;;;;;;2.65;0.80;;;19.30;64.70;;;;;;5095572;28;20031;-27
2022/07/16 07:36:21;;;;;;;1.55;0.73;;;19.30;64.10;;;;;;5095850;28;20016;-34
2022/07/16 07:38:47;;;;;;;2.13;0.70;;;19.30;64.10;;;;;;5094118;28;20035;-33
2022/07/16 07:41:13;;;;;;;3.10;0.80;;;19.40;63.90;;;;;;5095646;28;20043;-27
2022/07/16 07:43:39;;;;;;;3.20;1.17;;;19.50;63.50;;;;;;5095267;28;20016;-29
2022/07/16 07:46:06;;;;;;;1.48;0.70;;;19.50;62.80;;;;;;5095610;28;20028;-27
2022/07/16 07:48:32;;;;;;;4.45;0.70;;;19.50;62.80;;;;;;5096031;28;20456;-28
2022/07/16 07:50:57;;;;;;;1.48;0.70;;;19.60;62.10;;;;;;5094596;28;20099;-26
2022/07/16 07:53:23;;;;;;;2.03;0.80;;;19.60;61.60;;;;;;5095445;28;20522;-30
2022/07/16 07:55:49;;;;;;;1.70;0.90;;;19.60;61.00;;;;;;5096050;28;20024;-26
2022/07/16 07:58:15;;;;;;;2.00;0.70;;;19.60;60.50;;;;;;5095967;28;20020;-26
2022/07/16 08:00:41;;;;;;;2.28;0.90;;;19.60;60.60;;;;;;5094984;28;20087;-27
2022/07/16 08:03:07;;;;;;;1.75;0.90;;;19.60;60.00;;;;;;5095640;28;20098;-27
2022/07/16 08:05:33;;;;;;;2.17;0.93;;;19.70;59.90;;;;;;5095541;28;20055;-27
2022/07/16 08:07:59;;;;;;;1.88;1.02;;;19.70;59.40;;;;;;5095171;28;20435;-28
2022/07/16 08:10:24;;;;;;;2.08;1.10;;;19.60;59.40;;;;;;5095217;28;20463;-28
2022/07/16 08:12:50;;;;;;;1.98;0.70;;;19.60;59.30;;;;;;5095429;28;20541;-27
2022/07/16 08:15:16;;;;;;;1.55;0.90;;;19.60;59.10;;;;;;5095116;28;20081;-27
2022/07/16 08:17:42;;;;;;;1.42;0.70;;;19.60;59.00;;;;;;5094861;28;20024;-27
2022/07/16 08:20:09;;;;;;;2.35;1.05;;;19.60;58.90;;;;;;5095240;28;20077;-28
2022/07/16 08:22:35;;;;;;;2.67;0.68;;;19.70;59.00;;;;;;5094950;28;20020;-28
2022/07/16 08:27:45;;;;;;;1.05;0.70;;;19.50;58.90;;;;;;5094545;28;20119;-26
2022/07/16 08:30:11;;;;;;;4.03;0.70;;;19.50;58.90;;;;;;5094504;28;20075;-26
2022/07/16 08:32:37;;;;;;;1.90;0.70;;;19.50;59.00;;;;;;5093522;28;20024;-25
2022/07/16 08:35:04;;;;;;;2.47;0.82;;;19.50;58.90;;;;;;5094577;28;20039;-29
2022/07/16 08:37:36;;;;;;;3.13;1.00;;;19.50;58.90;;;;;;5094525;28;20016;-27
2022/07/16 08:40:04;;;;;;;2.72;0.90;;;19.50;59.10;;;;;;5094896;28;20021;-30
2022/07/16 08:42:32;;;;;;;1.42;0.55;;;19.50;59.00;;;;;;5092716;28;20475;-28
2022/07/16 08:44:59;;;;;;;4.75;1.10;;;19.50;59.20;;;;;;5094462;28;20016;-27
2022/07/16 08:47:26;;;;;;;2.80;0.75;;;19.60;58.80;;;;;;5093021;28;20537;-24
2022/07/16 08:49:52;;;;;;;1.58;0.60;;;19.60;58.60;;;;;;5093488;28;20044;-24
2022/07/16 08:52:19;;;;;;;1.88;1.00;;;19.60;58.60;;;;;;5094375;28;20022;-24
2022/07/16 08:54:47;;;;;;;1.30;0.70;;;19.70;57.90;;;;;;5094218;28;20073;-24
2022/07/16 08:57:14;;;;;;;2.00;0.80;;;19.70;57.80;;;;;;5094174;28;20468;-24
2022/07/16 08:59:40;;;;;;;1.67;0.60;;;19.70;56.50;;;;;;5094189;28;20020;-23
2022/07/16 09:02:05;;;;;;;1.25;0.77;;;19.70;56.10;;;;;;5094236;28;20032;-25
2022/07/16 09:04:31;;;;;;;2.00;1.13;;;19.70;55.70;;;;;;5094485;28;20024;-23
2022/07/16 09:06:57;;;;;;;0.65;0.38;;;19.80;55.30;;;;;;5094214;28;20024;-23
2022/07/16 09:09:22;;;;;;;3.03;0.80;;;19.80;55.40;;;;;;5093842;28;20039;-24
2022/07/16 09:11:48;;;;;;;2.65;0.77;;;19.90;54.60;;;;;;5094395;28;20032;-24
2022/07/16 09:14:15;;;;;;;1.73;0.60;;;19.90;54.00;;;;;;5094350;28;20527;-24
2022/07/16 09:16:44;;;;;;;1.80;0.70;;;19.90;54.10;;;;;;5093817;28;20093;-24
2022/07/16 09:19:19;;;;;;;1.90;0.50;;;20.00;54.10;;;;;;5093965;28;20376;-25
2022/07/16 09:22:10;;;;;;;1.25;0.60;;;20.10;54.00;;;;;;5093951;28;20020;-24
2022/07/16 09:24:42;;;;;;;1.80;0.80;;;20.20;53.90;;;;;;5093762;28;20028;-25
2022/07/16 09:27:13;;;;;;;1.95;0.73;;;20.30;53.00;;;;;;5094395;28;20024;-23
2022/07/16 09:29:59;;;;;;;1.52;0.60;;;20.30;52.90;;;;;;5093674;28;20031;-24
2022/07/16 09:32:36;;;;;;;3.28;1.17;;;20.40;53.10;;;;;;5092110;28;20031;-24
2022/07/16 09:35:13;;;;;;;2.95;0.68;;;20.50;52.20;;;;;;5093400;28;20023;-24
2022/07/16 09:37:55;;;;;;;1.40;0.50;;;20.40;51.90;;;;;;5093379;28;20024;-24
2022/07/16 09:40:44;;;;;;;1.27;0.65;;;20.30;52.20;;;;;;5093533;28;20387;-27
2022/07/16 09:43:15;;;;;;;2.58;0.70;;;20.30;51.30;;;;;;5094397;28;20020;-25
2022/07/16 09:45:46;;;;;;;2.30;0.70;;;20.40;52.00;;;;;;5093929;28;20499;-24
2022/07/16 09:48:24;;;;;;;1.67;0.70;;;20.40;51.60;;;;;;5093506;28;20055;-22
2022/07/16 09:50:52;;;;;;;1.23;0.52;;;20.40;51.50;;;;;;5093874;28;20402;-24
2022/07/16 09:53:20;;;;;;;1.88;0.50;;;20.50;51.60;;;;;;5093395;28;20388;-24
2022/07/16 09:56:07;;;;;;;1.83;0.70;;;20.50;51.60;;;;;;5093494;28;20379;-28
2022/07/16 09:58:34;;;;;;;1.90;0.70;;;20.50;50.70;;;;;;5093234;28;20032;-25
2022/07/16 10:01:02;;;;;;;1.85;0.60;;;20.50;50.60;;;;;;5091516;28;20103;-27
2022/07/16 10:03:28;;;;;;;1.75;0.52;;;20.50;50.70;;;;;;5092744;28;20031;-27
2022/07/16 10:05:54;;;;;;;0.90;0.43;;;20.50;50.40;;;;;;5092980;28;20394;-27
2022/07/16 10:08:20;;;;;;;1.58;0.60;;;20.60;49.80;;;;;;5091319;28;20024;-26
2022/07/16 10:10:47;;;;;;;1.33;0.50;;;20.60;50.00;;;;;;5092486;28;20124;-26
2022/07/16 10:13:14;;;;;;;1.17;0.75;;;20.80;50.50;;;;;;5093091;28;20036;-24
2022/07/16 10:15:46;;;;;;;1.83;0.60;;;20.90;49.60;;;;;;5092377;28;20094;-25
2022/07/16 10:18:47;;;;;;;2.28;0.52;;;21.00;49.20;;;;;;5091642;28;20111;-28
2022/07/16 10:21:12;;;;;;;1.58;0.68;;;21.00;49.80;;;;;;5093061;28;20031;-25
2022/07/16 10:23:40;;;;;;;1.15;0.57;;;20.90;50.00;;;;;;5092619;28;20031;-27
2022/07/16 10:26:24;;;;;;;2.17;0.60;;;21.00;50.30;;;;;;5092394;28;20023;-28
2022/07/16 10:28:55;;;;;;;2.05;0.50;;;21.10;50.30;;;;;;5092540;28;20483;-29
2022/07/16 10:31:31;;;;;;;1.02;0.57;;;21.30;50.10;;;;;;5092351;28;20099;-26
2022/07/16 10:34:15;;;;;;;3.83;0.88;;;21.40;49.40;;;;;;5093008;28;20536;-23
2022/07/16 10:36:55;;;;;;;0.45;0.45;;;21.30;49.20;;;;;;5091215;28;20028;-26
2022/07/16 10:39:25;;;;;;;3.20;0.65;;;21.30;49.00;;;;;;5092475;28;20424;-23
2022/07/16 10:41:57;;;;;;;1.65;0.40;;;21.20;49.10;;;;;;5092463;28;20020;-25
2022/07/16 10:44:26;;;;;;;0.90;0.43;;;21.30;48.80;;;;;;5091149;28;20027;-24
2022/07/16 10:46:54;;;;;;;1.33;0.50;;;21.50;48.90;;;;;;5092504;28;20024;-23
2022/07/16 10:49:21;;;;;;;2.53;0.73;;;21.50;48.20;;;;;;5092764;28;20466;-26
2022/07/16 10:51:57;;;;;;;2.33;0.55;;;21.50;48.40;;;;;;5092917;28;20032;-23
2022/07/16 10:54:29;;;;;;;2.03;0.50;;;21.40;48.40;;;;;;5091115;28;20028;-23
2022/07/16 10:56:56;;;;;;;2.08;0.63;;;21.40;48.60;;;;;;5094873;28;20383;-23
2022/07/16 10:59:34;;;;;;;3.08;0.77;;;21.50;48.50;;;;;;5096298;28;20024;-24
2022/07/16 11:02:03;;;;;;;2.25;0.60;;;21.50;48.30;;;;;;5096885;28;20472;-23
2022/07/16 11:04:41;;;;;;;2.97;0.70;;;21.50;48.50;;;;;;5096483;28;20024;-24
2022/07/16 11:07:12;;;;;;;3.13;0.63;;;21.50;48.60;;;;;;5096452;28;20471;-25
2022/07/16 11:09:41;;;;;;;2.90;0.70;;;21.40;48.80;;;;;;5096195;28;20040;-23
2022/07/16 11:12:17;;;;;;;1.33;0.60;;;21.30;48.60;;;;;;5096181;28;20077;-24
2022/07/16 11:14:46;;;;;;;2.22;0.88;;;21.40;48.70;;;;;;5096392;28;20024;-23
2022/07/16 11:17:13;;;;;;;2.22;0.70;;;21.40;48.60;;;;;;5078339;28;20028;-24
2022/07/16 11:19:43;;;;;;;2.75;0.80;;;21.40;48.60;;;;;;5096029;28;20054;-24
2022/07/16 11:22:10;;;;;;;2.75;0.60;;;21.40;48.60;;;;;;5096483;28;20056;-23
2022/07/16 11:24:44;;;;;;;3.53;0.68;;;21.50;48.60;;;;;;5095909;28;20042;-26
2022/07/16 11:27:09;;;;;;;3.03;0.70;;;21.60;48.60;;;;;;5095773;28;20041;-23
2022/07/16 11:29:35;;;;;;;1.17;0.40;;;21.70;48.60;;;;;;5094877;28;20483;-23
2022/07/16 11:32:01;;;;;;;2.28;0.75;;;21.90;48.50;;;;;;5095987;28;20068;-24
2022/07/16 11:34:33;;;;;;;3.53;0.85;;;21.90;48.20;;;;;;5096310;28;20027;-25
2022/07/16 11:36:58;;;;;;;1.90;0.70;;;21.70;48.40;;;;;;5095011;28;20024;-24
2022/07/16 11:39:27;;;;;;;2.22;0.70;;;21.70;48.80;;;;;;5094620;28;20028;-24
2022/07/16 11:41:55;;;;;;;2.45;0.75;;;21.70;48.60;;;;;;5096165;28;20039;-23
2022/07/16 11:44:26;;;;;;;2.03;0.70;;;21.60;47.80;;;;;;5096050;28;20036;-23
2022/07/16 11:46:54;;;;;;;4.05;0.80;;;21.70;48.10;;;;;;5095999;28;20375;-24
2022/07/16 11:49:41;;;;;;;1.65;0.60;;;21.70;47.60;;;;;;5094487;28;20024;-24
2022/07/16 11:52:14;;;;;;;1.80;0.70;;;21.90;47.80;;;;;;5095478;28;20056;-24
2022/07/16 11:54:41;;;;;;;;;;;22.10;47.80;;;;;;5095705;28;20044;-24
2022/07/16 11:57:11;;;;;;;1.85;0.57;;;22.10;47.50;;;;;;5095068;28;19912;-25
2022/07/16 11:59:47;;;;;;;1.67;0.68;;;22.10;47.10;;;;;;5095515;28;20123;-25
2022/07/16 12:02:16;;;;;;;3.50;0.75;;;22.20;46.90;;;;;;5094412;28;20032;-25
2022/07/16 12:04:49;;;;;;;1.30;0.60;;;22.20;46.70;;;;;;5095492;28;20038;-24
2022/07/16 12:07:32;;;;;;;2.40;0.73;;;22.30;47.10;;;;;;5093007;28;20495;-24
2022/07/16 12:10:04;;;;;;;1.95;0.75;;;22.50;47.00;;;;;;5095328;28;20454;-24
2022/07/16 12:12:34;;;;;;;2.07;0.80;;;22.50;46.80;;;;;;5093723;28;20036;-25
2022/07/16 12:15:12;;;;;;;1.55;0.75;;;22.60;46.70;;;;;;5095507;28;20267;-24
2022/07/16 12:17:43;;;;;;;5.28;0.98;;;22.60;46.80;;;;;;5095358;28;20490;-24
2022/07/16 12:20:22;;;;;;;4.15;0.70;;;22.60;47.00;;;;;;5095179;28;20020;-24
2022/07/16 12:23:02;;;;;;;1.95;0.68;;;22.60;46.70;;;;;;5094470;28;20028;-24
2022/07/16 12:25:36;;;;;;;0.45;0.40;;;22.60;46.50;;;;;;5095115;28;20032;-24
2022/07/16 12:28:06;;;;;;;1.42;0.68;;;22.70;46.20;;;;;;5095129;28;20051;-24
2022/07/16 12:30:33;;;;;;;1.73;0.63;;;22.80;45.80;;;;;;5095170;28;20036;-24
2022/07/16 12:33:00;;;;;;;2.63;0.52;;;22.70;45.50;;;;;;5094969;28;20024;-24
2022/07/16 12:35:48;;;;;;;1.38;0.50;;;22.60;45.80;;;;;;5094726;28;20024;-25
2022/07/16 12:38:52;;;;;;;1.70;0.75;;;22.60;45.90;;;;;;5094868;28;20036;-31
2022/07/16 12:41:21;;;;;;;2.30;0.75;;;22.80;45.90;;;;;;5095094;28;20475;-25
2022/07/16 12:44:01;;;;;;;1.55;0.60;;;22.90;45.50;;;;;;5094972;28;20475;-25
2022/07/16 12:46:48;;;;;;;2.50;0.77;;;22.90;45.70;;;;;;5094854;28;20043;-26
2022/07/16 12:49:17;;;;;;;3.95;0.85;;;23.00;45.50;;;;;;5093859;28;20168;-25
2022/07/16 12:51:45;;;;;;;2.13;0.70;;;23.00;45.30;;;;;;5095270;28;20137;-26
2022/07/16 12:54:13;;;;;;;0.85;0.50;;;23.00;45.20;;;;;;5094962;28;20115;-26
2022/07/16 12:59:24;;;;;;;1.55;0.60;;;23.40;44.90;;;;;;5094481;28;20395;-25
2022/07/16 13:01:51;;;;;;;2.17;0.60;;;23.70;44.50;;;;;;5094880;28;20024;-24